Time;durP1;ratioP1;P1;durP2;ratioP2;P2;SDS_P1;SDS_P2;PMS_P1;PMS_P2;Temp;Humidity;BMP_temperature;BMP_pressure;BME280_temperature;BME280_humidity;BME280_pressure;Samples;Min_cycle;Max_cycle;Signal;HPM_P1;HPM_P2
2023/10/09 00:01:46;;;;;;;;;;;;;;;3.88;80.70;97373.91;5021156;28;19927;-70
2023/10/09 00:04:15;;;;;;;;;;;;;;;3.86;80.20;97394.50;5020605;28;20918;-70
2023/10/09 00:06:44;;;;;;;;;;;;;;;3.87;80.24;97392.78;5035773;28;20329;-70
2023/10/09 00:11:48;;;;;;;;;;;;;;;3.88;79.81;97404.78;5023527;28;19917;-69
2023/10/09 00:14:18;;;;;;;;;;;;;;;3.88;80.33;97413.31;5004230;28;19939;-68
2023/10/09 00:16:48;;;;;;;;;;;;;;;3.86;80.45;97420.22;5038330;28;20307;-69
2023/10/09 00:19:18;;;;;;;;;;;;;;;3.87;80.40;97424.50;5023524;28;19959;-71
2023/10/09 00:21:45;;;;;;;;;;;;;;;3.86;80.21;97427.94;5021785;28;19917;-70
2023/10/09 00:24:16;;;;;;;;;;;;;;;3.90;80.62;97426.19;5037881;28;19917;-70
2023/10/09 00:26:48;;;;;;;;;;;;;;;3.91;80.67;97436.44;5024407;28;19925;-69
2023/10/09 00:29:21;;;;;;;;;;;;;;;3.91;80.70;97446.72;5007248;28;19924;-70
2023/10/09 00:32:37;;;;;;;;;;;;;;;3.88;80.57;97431.34;5039352;28;19921;-71
2023/10/09 00:34:45;;;;;;;;;;;;;;;4.06;80.69;97448.16;5030435;28;19932;-72
2023/10/09 00:37:16;;;;;;;;;;;;;;;4.05;80.69;97449.03;5037932;28;19921;-71
2023/10/09 00:39:44;;;;;;;;;;;;;;;4.02;80.51;97454.22;5020712;28;20379;-70
2023/10/09 00:42:14;;;;;;;;;;;;;;;4.07;81.30;97459.31;5037089;28;19936;-71
2023/10/09 00:44:42;;;;;;;;;;;;;;;4.07;81.08;97467.03;5035288;28;19917;-70
2023/10/09 00:47:33;;;;;;;;;;;;;;;3.99;80.50;97474.88;5019284;28;19917;-70
2023/10/09 00:52:49;;;;;;;;;;;;;;;3.99;80.35;97481.75;5052497;28;19917;-71
2023/10/09 00:55:21;;;;;;;;;;;;;;;3.96;80.29;97489.53;5037105;28;19928;-69
2023/10/09 00:58:35;;;;;;;;;;;;;;;3.95;80.77;97488.69;5036262;28;19920;-71
2023/10/09 01:00:46;;;;;;;;;;;;;;;3.98;81.13;97493.75;5030554;28;19924;-70
2023/10/09 01:06:14;;;;;;;;;;;;;;;3.98;80.70;97483.47;5020862;28;19917;-69
2023/10/09 01:11:18;;;;;;;;;;;;;;;3.97;80.58;97517.84;5034029;28;19917;-70
2023/10/09 01:16:17;;;;;;;;;;;;;;;4.00;80.26;97527.22;5037175;28;19960;-72
2023/10/09 01:18:43;;;;;;;;;;;;;;;4.03;81.44;97516.88;5037084;28;19917;-72
2023/10/09 01:21:14;;;;;;;;;;;;;;;4.11;80.98;97520.13;5006795;28;20295;-68
2023/10/09 01:26:33;;;;;;;;;;;;;;;4.13;80.93;97527.84;5036488;28;19923;-73
2023/10/09 01:29:00;;;;;;;;;;;;;;;4.14;80.66;97540.66;5017472;28;19923;-72
2023/10/09 01:31:27;;;;;;;;;;;;;;;4.17;80.44;97550.91;5051785;28;19917;-70
2023/10/09 01:33:59;;;;;;;;;;;;;;;4.23;80.92;97552.50;5036303;28;19921;-74
2023/10/09 01:36:31;;;;;;;;;;;;;;;4.16;80.26;97559.50;5021911;28;19921;-72
2023/10/09 01:39:23;;;;;;;;;;;;;;;4.17;80.84;97568.09;5038331;28;19945;-72
2023/10/09 01:41:58;;;;;;;;;;;;;;;4.18;80.94;97569.78;5034627;28;19921;-73
2023/10/09 01:44:29;;;;;;;;;;;;;;;4.22;81.14;97574.84;5036626;28;19943;-73
2023/10/09 01:46:57;;;;;;;;;;;;;;;4.23;80.89;97580.81;5021189;28;20398;-69
2023/10/09 01:49:29;;;;;;;;;;;;;;;4.27;80.77;97579.06;5051507;28;19917;-74
2023/10/09 01:52:01;;;;;;;;;;;;;;;4.23;80.82;97588.53;5032629;28;19917;-74
2023/10/09 01:54:40;;;;;;;;;;;;;;;4.25;81.15;97588.53;5038617;28;19917;-73
2023/10/09 01:57:09;;;;;;;;;;;;;;;4.17;80.37;97596.41;5019609;28;19928;-72
2023/10/09 01:59:38;;;;;;;;;;;;;;;4.18;80.30;97592.97;5017285;28;19917;-73
2023/10/09 02:02:44;;;;;;;;;;;;;;;4.25;80.41;97602.25;5038138;28;20280;-73
2023/10/09 02:05:23;;;;;;;;;;;;;;;4.31;81.23;97601.28;5033117;28;19917;-75
2023/10/09 02:07:52;;;;;;;;;;;;;;;4.29;81.14;97618.50;5035098;28;19956;-73
2023/10/09 02:13:06;;;;;;;;;;;;;;;4.29;80.83;97618.50;5021611;28;19917;-72
2023/10/09 02:15:51;;;;;;;;;;;;;;;4.33;80.79;97631.28;5034538;28;19921;-72
2023/10/09 02:18:28;;;;;;;;;;;;;;;4.29;80.96;97628.81;5036322;28;19946;-73
2023/10/09 02:26:17;;;;;;;;;;;;;;;4.26;81.44;97641.72;5036832;28;19921;-72
2023/10/09 02:28:52;;;;;;;;;;;;;;;4.29;81.70;97642.50;5035478;28;20006;-73
2023/10/09 02:31:21;;;;;;;;;;;;;;;4.32;81.75;97646.75;5039501;28;19923;-73
2023/10/09 02:33:55;;;;;;;;;;;;;;;4.40;82.08;97655.19;5019215;28;19921;-73
2023/10/09 02:36:28;;;;;;;;;;;;;;;4.40;81.91;97660.34;5038106;28;19944;-75
2023/10/09 02:38:56;;;;;;;;;;;;;;;4.37;80.32;97655.25;5032341;28;19917;-73
2023/10/09 02:41:23;;;;;;;;;;;;;;;4.39;81.40;97663.78;5015392;28;19983;-73
2023/10/09 02:44:11;;;;;;;;;;;;;;;4.43;81.97;97678.31;5021815;28;20034;-71
2023/10/09 02:46:36;;;;;;;;;;;;;;;4.44;80.93;97677.44;5017470;28;19916;-73
2023/10/09 02:49:09;;;;;;;;;;;;;;;4.44;81.88;97674.00;5036772;28;19917;-75
2023/10/09 02:51:41;;;;;;;;;;;;;;;4.48;82.06;97686.81;5002231;28;20035;-73
2023/10/09 02:54:34;;;;;;;;;;;;;;;4.48;81.47;97686.81;5036653;28;19923;-72
2023/10/09 02:57:07;;;;;;;;;;;;;;;4.42;81.42;97686.91;5036412;28;20354;-70
2023/10/09 02:59:44;;;;;;;;;;;;;;;4.46;82.12;97693.72;5036195;28;19923;-70
2023/10/09 03:02:13;;;;;;;;;;;;;;;4.48;81.98;97702.28;5020132;28;19921;-71
2023/10/09 03:04:41;;;;;;;;;;;;;;;4.51;81.83;97699.66;5050078;28;19976;-72
2023/10/09 03:07:10;;;;;;;;;;;;;;;4.53;81.65;97700.44;5016085;28;20260;-70
2023/10/09 03:09:40;;;;;;;;;;;;;;;4.56;81.96;97707.28;5037817;28;19917;-71
2023/10/09 03:12:09;;;;;;;;;;;;;;;4.59;81.87;97707.22;5017989;28;19931;-71
2023/10/09 03:14:38;;;;;;;;;;;;;;;4.58;81.97;97715.84;5042742;28;19917;-74
2023/10/09 03:17:05;;;;;;;;;;;;;;;4.56;81.99;97717.59;5038048;28;19928;-75
2023/10/09 03:19:39;;;;;;;;;;;;;;;4.57;81.60;97728.72;5041668;28;20011;-74
2023/10/09 03:22:11;;;;;;;;;;;;;;;4.54;81.66;97734.78;5038295;28;19921;-74
2023/10/09 03:24:39;;;;;;;;;;;;;;;4.55;82.07;97738.22;5025624;28;19916;-77
2023/10/09 03:27:04;;;;;;;;;;;;;;;4.59;80.91;97738.16;5041946;28;20032;-74
2023/10/09 03:29:30;;;;;;;;;;;;;;;4.63;81.40;97739.78;5020778;28;19967;-74
2023/10/09 03:31:56;;;;;;;;;;;;;;;4.59;81.46;97747.59;5039321;28;19939;-73
2023/10/09 03:34:23;;;;;;;;;;;;;;;4.56;81.63;97745.94;5026481;28;19971;-73
2023/10/09 03:36:59;;;;;;;;;;;;;;;4.59;81.46;97747.59;5040555;28;19956;-70
2023/10/09 03:39:47;;;;;;;;;;;;;;;4.65;81.99;97761.19;5035525;28;19924;-71
2023/10/09 03:42:19;;;;;;;;;;;;;;;4.66;80.79;97759.50;5040968;28;19924;-70
2023/10/09 03:44:49;;;;;;;;;;;;;;;4.70;82.21;97766.28;5023317;28;19924;-71
2023/10/09 03:47:16;;;;;;;;;;;;;;;4.73;81.70;97767.97;5035636;28;19917;-71
2023/10/09 03:49:56;;;;;;;;;;;;;;;4.78;81.00;97779.88;5033444;28;19921;-71
2023/10/09 03:52:25;;;;;;;;;;;;;;;4.77;81.03;97770.44;5024144;28;20291;-71
2023/10/09 03:54:51;;;;;;;;;;;;;;;4.73;81.00;97778.28;5021573;28;19921;-71
2023/10/09 03:57:19;;;;;;;;;;;;;;;4.77;81.22;97785.06;5037597;28;19917;-71
2023/10/09 03:59:49;;;;;;;;;;;;;;;4.72;80.69;97784.28;5040959;28;19967;-71
2023/10/09 04:02:15;;;;;;;;;;;;;;;4.72;81.14;97784.28;5041899;28;20060;-72
2023/10/09 04:04:47;;;;;;;;;;;;;;;4.73;81.60;97789.44;5038752;28;19923;-70
2023/10/09 04:07:16;;;;;;;;;;;;;;;4.75;81.10;97792.81;5016852;28;19917;-70
2023/10/09 04:09:44;;;;;;;;;;;;;;;4.77;80.80;97798.78;5039418;28;20375;-71
2023/10/09 04:14:46;;;;;;;;;;;;;;;4.87;81.27;97812.38;5041121;28;19916;-71
2023/10/09 04:17:43;;;;;;;;;;;;;;;4.93;81.05;97821.75;5035547;28;19928;-70
2023/10/09 04:22:50;;;;;;;;;;;;;;;4.96;80.62;97826.84;5037097;28;19917;-73
2023/10/09 04:25:29;;;;;;;;;;;;;;;4.96;81.14;97830.25;5040304;28;19917;-69
2023/10/09 04:28:37;;;;;;;;;;;;;;;4.94;80.78;97841.50;5039839;28;20393;-71
2023/10/09 04:30:53;;;;;;;;;;;;;;;4.90;80.46;97842.41;5028460;28;19924;-71
2023/10/09 04:36:28;;;;;;;;;;;;;;;4.79;81.01;97853.72;5037887;28;19928;-71
2023/10/09 04:40:01;;;;;;;;;;;;;;;4.72;80.45;97865.03;5019053;28;19917;-71
2023/10/09 04:44:22;;;;;;;;;;;;;;;4.70;80.61;97876.22;5040898;28;20083;-71
2023/10/09 04:55:12;;;;;;;;;;;;;;;4.70;80.41;97884.81;5039002;28;20326;-74
2023/10/09 05:03:04;;;;;;;;;;;;;;;4.79;80.70;97886.41;5036862;28;19924;-71
2023/10/09 05:16:19;;;;;;;;;;;;;;;4.87;81.17;97918.03;5025810;28;19987;-72
2023/10/09 05:18:55;;;;;;;;;;;;;;;4.86;81.20;97910.34;5021680;28;19918;-73
2023/10/09 05:21:36;;;;;;;;;;;;;;;4.80;80.04;97917.28;5037585;28;19932;-71
2023/10/09 05:32:04;;;;;;;;;;;;;;;4.86;80.36;97930.97;5063478;28;20226;-71
2023/10/09 05:35:05;;;;;;;;;;;;;;;4.92;80.82;97941.19;5064889;28;19924;-70
2023/10/09 05:37:32;;;;;;;;;;;;;;;4.95;80.39;97933.41;5077364;28;20010;-69
2023/10/09 05:54:11;;;;;;;;;;;;;;;5.09;80.35;97962.38;5047097;28;19921;-72
2023/10/09 06:04:57;;;;;;;;;;;;;;;5.36;80.65;97978.28;5081582;28;20026;-79
2023/10/09 06:07:40;;;;;;;;;;;;;;;5.37;80.90;97977.41;5087904;28;19947;-76
2023/10/09 06:10:18;;;;;;;;;;;;;;;5.39;81.13;97985.97;5068851;28;19917;-75
2023/10/09 06:18:25;;;;;;;;;;;;;;;5.48;80.90;98003.03;5071666;28;19923;-78
2023/10/09 06:21:09;;;;;;;;;;;;;;;5.54;80.94;97997.75;5059764;28;19925;-74
2023/10/09 06:26:26;;;;;;;;;;;;;;;5.56;81.28;98010.63;5061180;28;19927;-77
2023/10/09 06:31:57;;;;;;;;;;;;;;;5.51;80.60;98018.47;5079879;28;19939;-79
2023/10/09 06:34:32;;;;;;;;;;;;;;;5.52;80.42;98027.03;5062076;28;20358;-76
2023/10/09 06:38:21;;;;;;;;;;;;;;;5.56;80.96;98036.44;5063787;28;19943;-80
2023/10/09 06:42:33;;;;;;;;;;;;;;;5.63;80.37;98045.75;5063987;28;20390;-71
2023/10/09 06:45:13;;;;;;;;;;;;;;;5.58;79.90;98056.16;5044043;28;19921;-71
2023/10/09 06:48:40;;;;;;;;;;;;;;;5.58;80.48;98063.06;5060144;28;19979;-67
2023/10/09 06:51:15;;;;;;;;;;;;;;;5.64;80.24;98060.38;5063392;28;19939;-71
2023/10/09 06:59:21;;;;;;;;;;;;;;;5.77;80.31;98071.34;5047254;28;19970;-71
2023/10/09 07:07:09;;;;;;;;;;;;;;;6.18;80.47;98067.19;5106722;28;20426;-71
2023/10/09 07:10:28;;;;;;;;;;;;;;;6.33;80.63;98084.13;5100278;28;19926;-70
2023/10/09 07:12:32;;;;;;;;;;;;;;;6.51;80.05;98083.81;5115537;28;20061;-69
2023/10/09 07:15:39;;;;;;;;;;;;;;;6.61;80.19;98082.78;5114752;28;19917;-67
2023/10/09 07:18:18;;;;;;;;;;;;;;;6.64;79.72;98093.00;5098967;28;19977;-69
2023/10/09 07:20:45;;;;;;;;;;;;;;;6.73;79.92;98100.59;5095866;28;19923;-69
2023/10/09 07:23:13;;;;;;;;;;;;;;;6.94;79.51;98106.19;5121861;28;19926;-68
2023/10/09 07:25:58;;;;;;;;;;;;;;;7.21;79.98;98107.34;5099953;28;19896;-68
2023/10/09 07:28:36;;;;;;;;;;;;;;;7.17;78.96;98107.44;5124336;28;20340;-68
2023/10/09 07:31:08;;;;;;;;;;;;;;;7.16;79.13;98109.19;5095698;28;19930;-67
2023/10/09 07:34:06;;;;;;;;;;;;;;;7.10;79.02;98114.50;5116541;28;19979;-70
2023/10/09 07:36:37;;;;;;;;;;;;;;;7.04;78.92;98122.38;5082008;28;19919;-69
2023/10/09 07:39:13;;;;;;;;;;;;;;;6.90;78.03;98126.13;5089335;28;19968;-68
2023/10/09 07:41:44;;;;;;;;;;;;;;;6.78;78.66;98137.56;5087462;28;19916;-69
2023/10/09 07:44:46;;;;;;;;;;;;;;;6.70;78.45;98129.09;5091583;28;19920;-71
2023/10/09 07:47:19;;;;;;;;;;;;;;;6.62;78.42;98138.75;5115309;28;19916;-72
2023/10/09 07:49:59;;;;;;;;;;;;;;;6.54;78.56;98148.38;5101088;28;19943;-70
2023/10/09 07:52:44;;;;;;;;;;;;;;;6.50;78.09;98142.41;5086896;28;19919;-72
2023/10/09 07:55:26;;;;;;;;;;;;;;;6.47;78.45;98156.22;5107591;27;19971;-77
2023/10/09 07:58:12;;;;;;;;;;;;;;;6.52;78.67;98156.13;5122653;27;19916;-75
2023/10/09 08:01:07;;;;;;;;;;;;;;;6.71;78.85;98163.56;5124323;27;19922;-76
2023/10/09 08:04:01;;;;;;;;;;;;;;;6.75;78.74;98160.00;5114362;28;19923;-76
2023/10/09 08:09:46;;;;;;;;;;;;;;;6.93;78.05;98172.59;5085065;28;19917;-75
2023/10/09 08:17:53;;;;;;;;;;;;;;;7.19;77.90;98188.47;5116189;27;19978;-74
2023/10/09 08:23:47;;;;;;;;;;;;;;;7.45;78.38;98202.59;5089485;28;19919;-74
2023/10/09 08:26:28;;;;;;;;;;;;;;;7.79;77.98;98196.63;5090694;28;19916;-74
2023/10/09 08:31:56;;;;;;;;;;;;;;;8.14;77.53;98198.41;5105077;28;19998;-73
2023/10/09 08:34:26;;;;;;;;;;;;;;;8.08;77.14;98210.66;5086350;28;19920;-77
2023/10/09 08:36:55;;;;;;;;;;;;;;;7.97;77.22;98211.75;5086321;28;20408;-75
2023/10/09 08:39:27;;;;;;;;;;;;;;;7.97;76.78;98216.09;5107927;28;20399;-72
2023/10/09 08:42:01;;;;;;;;;;;;;;;7.99;77.11;98211.72;5103014;28;20657;-69
2023/10/09 08:44:31;;;;;;;;;;;;;;;8.01;77.12;98222.91;5117630;27;19951;-70
2023/10/09 08:47:10;;;;;;;;;;;;;;;7.88;76.62;98232.69;5083962;28;20014;-67
2023/10/09 08:49:42;;;;;;;;;;;;;;;7.80;76.44;98227.69;5116463;27;19965;-69
2023/10/09 08:52:10;;;;;;;;;;;;;;;7.88;76.63;98224.06;5100248;28;20453;-72
2023/10/09 08:54:39;;;;;;;;;;;;;;;7.94;76.77;98229.09;5099138;28;19958;-74
2023/10/09 08:57:09;;;;;;;;;;;;;;;7.91;76.11;98231.75;5103402;28;19923;-67
2023/10/09 08:59:40;;;;;;;;;;;;;;;7.80;76.22;98230.28;5102157;28;19920;-70
2023/10/09 09:02:11;;;;;;;;;;;;;;;7.66;75.49;98242.66;5086008;28;19916;-71
2023/10/09 09:04:50;;;;;;;;;;;;;;;7.66;76.38;98238.34;5057764;28;19920;-70
2023/10/09 09:07:45;;;;;;;;;;;;;;;7.62;76.19;98251.38;5097182;28;19916;-66
2023/10/09 09:10:17;;;;;;;;;;;;;;;7.51;76.31;98249.88;5054137;28;19927;-67
2023/10/09 09:12:47;;;;;;;;;;;;;;;7.52;75.96;98251.59;5106074;28;19916;-65
2023/10/09 09:15:28;;;;;;;;;;;;;;;7.52;75.83;98255.91;5094600;28;19926;-65
2023/10/09 09:18:18;;;;;;;;;;;;;;;7.51;76.15;98262.84;5093602;28;19916;-66
2023/10/09 09:20:56;;;;;;;;;;;;;;;7.45;75.72;98260.38;5084101;28;19959;-66
2023/10/09 09:23:26;;;;;;;;;;;;;;;7.44;75.68;98257.81;5085831;28;19919;-65
2023/10/09 09:26:03;;;;;;;;;;;;;;;7.43;75.79;98262.13;5080146;28;19920;-67
2023/10/09 09:28:38;;;;;;;;;;;;;;;7.47;75.74;98268.94;5096158;28;19919;-67
2023/10/09 09:31:22;;;;;;;;;;;;;;;7.41;74.99;98265.63;5100390;28;19963;-65
2023/10/09 09:33:58;;;;;;;;;;;;;;;7.29;75.20;98264.16;5102886;28;19931;-67
2023/10/09 09:36:29;;;;;;;;;;;;;;;7.22;75.02;98284.13;5078650;28;19920;-67
2023/10/09 09:39:06;;;;;;;;;;;;;;;7.25;75.34;98276.31;5101718;28;20294;-67
2023/10/09 09:41:34;;;;;;;;;;;;;;;7.28;75.53;98291.78;5075231;28;19935;-67
2023/10/09 09:44:00;;;;;;;;;;;;;;;7.37;75.33;98283.81;5083655;28;19960;-66
2023/10/09 09:46:37;;;;;;;;;;;;;;;7.38;75.28;98292.44;5086206;28;19922;-67
2023/10/09 09:49:16;;;;;;;;;;;;;;;7.41;75.23;98283.75;5069671;28;19920;-68
2023/10/09 09:51:46;;;;;;;;;;;;;;;7.44;75.12;98289.72;5051212;28;19916;-66
2023/10/09 09:54:15;;;;;;;;;;;;;;;7.45;75.13;98295.75;5083703;28;19927;-71
2023/10/09 09:56:50;;;;;;;;;;;;;;;7.54;75.28;98301.59;5097877;28;19927;-72
2023/10/09 09:59:27;;;;;;;;;;;;;;;7.64;74.99;98302.25;5099072;28;19916;-74
2023/10/09 10:02:06;;;;;;;;;;;;;;;7.77;74.77;98304.56;5069366;28;19951;-70
2023/10/09 10:04:35;;;;;;;;;;;;;;;7.81;74.85;98307.09;5084547;28;19920;-78
2023/10/09 10:07:12;;;;;;;;;;;;;;;7.85;74.77;98313.03;5101023;28;19920;-75
2023/10/09 10:09:39;;;;;;;;;;;;;;;7.86;74.29;98311.28;5102314;28;19926;-71
2023/10/09 10:12:11;;;;;;;;;;;;;;;7.81;74.65;98320.03;5103697;28;19982;-74
2023/10/09 10:15:05;;;;;;;;;;;;;;;7.65;74.18;98316.91;5102101;28;19922;-72
2023/10/09 10:17:51;;;;;;;;;;;;;;;7.73;74.87;98323.66;5091855;28;19923;-71
2023/10/09 10:22:47;;;;;;;;;;;;;;;7.93;74.15;98328.41;5085182;28;19996;-74
2023/10/09 10:28:42;;;;;;;;;;;;;;;7.67;74.05;98340.16;5103753;28;20235;-70
2023/10/09 10:31:23;;;;;;;;;;;;;;;;;;;;;
2023/10/09 10:33:59;;;;;;;;;;;;;;;7.57;74.62;98336.06;5097254;28;19915;-77
2023/10/09 10:36:27;;;;;;;;;;;;;;;7.66;74.63;98341.91;5099434;28;19936;-76
2023/10/09 10:39:42;;;;;;;;;;;;;;;7.76;74.33;98344.31;5099947;28;19920;-76
2023/10/09 10:42:00;;;;;;;;;;;;;;;7.84;75.12;98348.44;5101348;28;19920;-73
2023/10/09 10:44:36;;;;;;;;;;;;;;;7.98;74.45;98344.72;5085878;28;19920;-78
2023/10/09 10:47:56;;;;;;;;;;;;;;;8.09;74.81;98354.84;5070776;28;19920;-78
2023/10/09 10:52:57;;;;;;;;;;;;;;;8.04;74.47;98356.69;5077902;28;20051;-74
2023/10/09 10:58:00;;;;;;;;;;;;;;;8.08;74.65;98360.91;5102414;28;20452;-72
2023/10/09 11:03:35;;;;;;;;;;;;;;;8.21;73.94;98364.94;5077165;28;19966;-75
2023/10/09 11:06:15;;;;;;;;;;;;;;;8.06;73.78;98371.28;5088743;28;19920;-74
2023/10/09 11:08:54;;;;;;;;;;;;;;;7.97;73.90;98371.50;5068650;28;19920;-75
2023/10/09 11:11:41;;;;;;;;;;;;;;;7.94;74.29;98371.56;5106258;28;19922;-75
2023/10/09 11:14:17;;;;;;;;;;;;;;;7.98;74.50;98383.56;5104891;28;19916;-75
2023/10/09 11:16:47;;;;;;;;;;;;;;;7.86;74.06;98395.03;5105095;28;19940;-80
2023/10/09 11:19:35;;;;;;;;;;;;;;;7.75;73.81;98395.25;5091500;28;20004;-78
2023/10/09 11:24:43;;;;;;;;;;;;;;;7.59;74.34;98384.34;5102838;28;19920;-73
2023/10/09 11:27:18;;;;;;;;;;;;;;;7.59;74.15;98396.44;5089984;28;19959;-71
2023/10/09 11:32:23;;;;;;;;;;;;;;;7.57;74.42;98401.63;5103356;28;19937;-73
2023/10/09 11:35:20;;;;;;;;;;;;;;;7.51;74.21;98402.63;5106912;28;19959;-75
2023/10/09 11:37:54;;;;;;;;;;;;;;;7.44;74.47;98413.94;5087399;28;20378;-75
2023/10/09 11:41:26;;;;;;;;;;;;;;;7.35;74.20;98414.97;5080102;28;19954;-73
2023/10/09 11:43:57;;;;;;;;;;;;;;;7.47;74.44;98418.22;5078580;28;19930;-72
2023/10/09 11:54:57;;;;;;;;;;;;;;;7.41;74.01;98426.09;4920258;28;19964;-77
2023/10/09 11:57:39;;;;;;;;;;;;;;;7.41;74.09;98423.50;5021210;28;19929;-76
2023/10/09 12:03:05;;;;;;;;;;;;;;;7.43;73.97;98432.94;5013200;28;19918;-73
2023/10/09 12:05:44;;;;;;;;;;;;;;;7.36;74.01;98431.38;4963057;28;19926;-72
2023/10/09 12:08:15;;;;;;;;;;;;;;;7.30;73.44;98444.41;4962084;28;19922;-75
2023/10/09 12:10:58;;;;;;;;;;;;;;;7.22;73.77;98444.53;5025869;28;19918;-70
2023/10/09 12:13:34;;;;;;;;;;;;;;;7.13;74.25;98450.72;5042903;28;19980;-67
2023/10/09 12:16:00;;;;;;;;;;;;;;;7.11;73.96;98455.06;5044430;28;19965;-71
2023/10/09 12:18:34;;;;;;;;;;;;;;;7.12;74.11;98458.50;5032292;28;19925;-72
2023/10/09 12:21:04;;;;;;;;;;;;;;;7.07;74.03;98471.50;5026835;28;20003;-72
2023/10/09 12:23:41;;;;;;;;;;;;;;;7.02;74.05;98481.06;5047769;28;19922;-71
2023/10/09 12:26:15;;;;;;;;;;;;;;;7.00;74.19;98472.47;5045136;28;19960;-71
2023/10/09 12:28:45;;;;;;;;;;;;;;;6.99;74.52;98478.53;5027705;28;20076;-69
2023/10/09 12:31:24;;;;;;;;;;;;;;;7.03;74.38;98480.19;5010364;28;19925;-71
2023/10/09 12:33:54;;;;;;;;;;;;;;;6.95;74.53;98474.31;5044304;28;19986;-71
2023/10/09 12:36:19;;;;;;;;;;;;;;;6.92;74.40;98491.56;4958455;28;19983;-73
2023/10/09 12:39:01;;;;;;;;;;;;;;;6.92;74.46;98504.50;5023325;28;19952;-71
2023/10/09 12:41:45;;;;;;;;;;;;;;;6.96;74.38;98500.13;4957970;28;19919;-70
2023/10/09 12:44:14;;;;;;;;;;;;;;;6.98;74.28;98498.38;4965556;28;19925;-69
2023/10/09 12:46:51;;;;;;;;;;;;;;;6.89;74.37;98511.44;5052596;28;19918;-71
2023/10/09 12:49:27;;;;;;;;;;;;;;;6.84;74.17;98521.00;5033297;28;19918;-72
2023/10/09 12:52:14;;;;;;;;;;;;;;;;;;;;;
2023/10/09 12:54:41;;;;;;;;;;;;;;;6.62;74.18;98526.47;5065975;28;19945;-72
2023/10/09 12:57:13;;;;;;;;;;;;;;;6.66;74.97;98533.28;5040347;28;19922;-71
2023/10/09 13:02:54;;;;;;;;;;;;;;;6.70;75.05;98532.38;4994889;28;19919;-72
2023/10/09 13:05:38;;;;;;;;;;;;;;;6.76;74.49;98544.34;5035594;28;19946;-74
2023/10/09 13:08:03;;;;;;;;;;;;;;;6.78;74.95;98540.91;5035572;28;19926;-76
2023/10/09 13:10:31;;;;;;;;;;;;;;;6.85;75.18;98539.06;4968599;28;19977;-77
2023/10/09 13:13:02;;;;;;;;;;;;;;;6.84;75.07;98547.72;5034054;28;19926;-75
2023/10/09 13:15:42;;;;;;;;;;;;;;;6.81;74.68;98550.31;4973752;28;20396;-75
2023/10/09 13:18:08;;;;;;;;;;;;;;;6.77;75.29;98553.81;5038934;28;20388;-73
2023/10/09 13:20:36;;;;;;;;;;;;;;;6.72;74.89;98550.47;5029627;28;19926;-73
2023/10/09 13:23:26;;;;;;;;;;;;;;;;;;;;;
2023/10/09 13:25:53;;;;;;;;;;;;;;;6.58;74.63;98556.66;4968152;28;20453;-72
2023/10/09 13:28:20;;;;;;;;;;;;;;;6.53;75.31;98561.00;4977831;28;19918;-71
2023/10/09 13:30:50;;;;;;;;;;;;;;;6.53;75.38;98558.44;4968153;28;19949;-72
2023/10/09 13:33:21;;;;;;;;;;;;;;;6.53;75.59;98563.59;4967492;28;19928;-73
2023/10/09 13:36:31;;;;;;;;;;;;;;;6.47;74.58;98579.22;4961367;28;20388;-74
2023/10/09 13:39:19;;;;;;;;;;;;;;;6.45;75.30;98588.69;5008107;28;19926;-73
2023/10/09 13:41:59;;;;;;;;;;;;;;;6.45;74.72;98586.13;5035803;28;19921;-74
2023/10/09 13:44:29;;;;;;;;;;;;;;;6.46;75.60;98590.41;5004160;28;19941;-73
2023/10/09 13:47:05;;;;;;;;;;;;;;;6.51;75.62;98587.75;5041411;28;19933;-74
2023/10/09 13:49:57;;;;;;;;;;;;;;;6.48;75.29;98607.59;5018210;28;20002;-71
2023/10/09 13:52:24;;;;;;;;;;;;;;;6.55;75.37;98598.03;4975998;28;20407;-74
2023/10/09 13:54:50;;;;;;;;;;;;;;;6.58;75.75;98598.00;5001730;28;19967;-74
2023/10/09 13:57:31;;;;;;;;;;;;;;;6.60;75.60;98609.19;4945395;28;19922;-74
2023/10/09 14:00:00;;;;;;;;;;;;;;;6.56;75.10;98615.25;4966890;28;19929;-75
2023/10/09 14:02:28;;;;;;;;;;;;;;;6.55;75.34;98612.72;5044478;28;20376;-72
2023/10/09 14:04:57;;;;;;;;;;;;;;;6.51;75.33;98609.28;5025685;28;20434;-70
2023/10/09 14:07:27;;;;;;;;;;;;;;;6.47;75.39;98621.41;5041550;28;19926;-70
2023/10/09 14:10:07;;;;;;;;;;;;;;;6.45;75.50;98615.38;5041368;28;19922;-72
2023/10/09 14:12:45;;;;;;;;;;;;;;;6.36;75.36;98625.84;5032070;28;19918;-70
2023/10/09 14:15:16;;;;;;;;;;;;;;;6.31;75.42;98627.59;4960639;28;20037;-67
2023/10/09 14:17:43;;;;;;;;;;;;;;;6.33;75.56;98631.88;5065003;28;19917;-70
2023/10/09 14:20:31;;;;;;;;;;;;;;;6.29;75.26;98642.25;5041211;28;20467;-71
2023/10/09 14:23:06;;;;;;;;;;;;;;;6.22;75.77;98644.06;5059393;28;19923;-71
2023/10/09 14:25:39;;;;;;;;;;;;;;;6.18;75.87;98653.53;5020103;28;19918;-69
2023/10/09 14:28:07;;;;;;;;;;;;;;;6.22;76.01;98651.81;5036988;28;19925;-70
2023/10/09 14:30:41;;;;;;;;;;;;;;;6.19;75.96;98651.84;5017828;28;20083;-71
2023/10/09 14:33:22;;;;;;;;;;;;;;;6.15;75.45;98658.75;5033123;28;19918;-70
2023/10/09 14:35:52;;;;;;;;;;;;;;;6.11;75.45;98661.38;5037522;28;19922;-71
2023/10/09 14:38:21;;;;;;;;;;;;;;;5.96;75.75;98664.94;5031564;28;19926;-68
2023/10/09 14:40:47;;;;;;;;;;;;;;;5.97;75.95;98672.66;5043582;28;20402;-69
2023/10/09 14:43:20;;;;;;;;;;;;;;;5.96;75.99;98665.78;5027413;28;19922;-71
2023/10/09 14:45:48;;;;;;;;;;;;;;;5.97;75.97;98675.25;5018686;28;19932;-73
2023/10/09 14:48:18;;;;;;;;;;;;;;;5.91;75.53;98672.69;5024139;28;19926;-71
2023/10/09 14:50:48;;;;;;;;;;;;;;;5.88;75.83;98678.75;4961093;28;19919;-69
2023/10/09 14:53:15;;;;;;;;;;;;;;;5.86;75.91;98674.44;5041789;28;19985;-70
2023/10/09 14:55:45;;;;;;;;;;;;;;;5.88;75.91;98683.03;5039261;28;19922;-70
2023/10/09 14:58:11;;;;;;;;;;;;;;;5.83;75.87;98690.00;5044322;28;19918;-70
2023/10/09 15:00:56;;;;;;;;;;;;;;;5.81;76.17;98686.56;5065028;28;19922;-69
2023/10/09 15:03:37;;;;;;;;;;;;;;;5.76;76.04;98699.47;5043996;28;19919;-72
2023/10/09 15:06:10;;;;;;;;;;;;;;;5.79;76.70;98703.78;4964560;28;19919;-77
2023/10/09 15:08:38;;;;;;;;;;;;;;;5.75;76.57;98708.09;4968724;28;19922;-73
2023/10/09 15:11:06;;;;;;;;;;;;;;;5.77;76.19;98716.69;5037926;28;20006;-77
2023/10/09 15:13:31;;;;;;;;;;;;;;;5.75;76.19;98712.41;4973975;28;19922;-69
2023/10/09 15:15:58;;;;;;;;;;;;;;;5.75;76.11;98712.41;5046466;28;19922;-76
2023/10/09 15:18:26;;;;;;;;;;;;;;;5.74;76.70;98721.88;5040642;28;19990;-70
2023/10/09 15:20:52;;;;;;;;;;;;;;;5.77;76.87;98721.00;5021807;28;19941;-70
2023/10/09 15:23:22;;;;;;;;;;;;;;;5.79;76.17;98729.59;5042237;28;19918;-71
2023/10/09 15:25:51;;;;;;;;;;;;;;;5.75;76.25;98733.06;5044888;28;19964;-69
2023/10/09 15:28:21;;;;;;;;;;;;;;;5.75;76.41;98733.91;5035052;28;19926;-76
2023/10/09 15:30:50;;;;;;;;;;;;;;;5.77;76.71;98732.19;4963662;28;19925;-68
2023/10/09 15:33:20;;;;;;;;;;;;;;;5.75;76.18;98744.22;4960900;28;19925;-76
2023/10/09 15:35:49;;;;;;;;;;;;;;;5.75;76.82;98743.38;5026783;28;19969;-71
2023/10/09 15:38:22;;;;;;;;;;;;;;;5.77;76.84;98746.81;5037894;28;19919;-72
2023/10/09 15:40:51;;;;;;;;;;;;;;;5.82;76.48;98748.50;4961269;28;19918;-72
2023/10/09 15:43:19;;;;;;;;;;;;;;;5.84;77.04;98754.50;5042962;28;19918;-72
2023/10/09 15:45:47;;;;;;;;;;;;;;;5.85;76.51;98752.78;4959604;28;19919;-73
2023/10/09 15:48:21;;;;;;;;;;;;;;;5.85;76.61;98756.22;5046404;28;19979;-74
2023/10/09 15:50:49;;;;;;;;;;;;;;;5.86;76.56;98764.81;5024931;28;19946;-73
2023/10/09 15:53:16;;;;;;;;;;;;;;;5.86;76.44;98754.50;5040943;28;19918;-71
2023/10/09 15:55:57;;;;;;;;;;;;;;;5.84;76.47;98766.59;5054345;28;20017;-71
2023/10/09 15:58:25;;;;;;;;;;;;;;;5.80;77.24;98767.47;5028290;28;19921;-72
2023/10/09 16:00:52;;;;;;;;;;;;;;;5.71;76.95;98765.78;5060576;28;19918;-72
2023/10/09 16:03:20;;;;;;;;;;;;;;;5.66;76.81;98780.44;5039525;28;19922;-72
2023/10/09 16:05:48;;;;;;;;;;;;;;;5.65;76.33;98776.16;5047508;28;19922;-69
2023/10/09 16:08:19;;;;;;;;;;;;;;;5.62;77.01;98786.47;5044071;28;19926;-72
2023/10/09 16:10:48;;;;;;;;;;;;;;;5.54;77.64;98787.38;4962236;28;20438;-71
2023/10/09 16:13:13;;;;;;;;;;;;;;;5.49;76.99;98794.28;5044210;28;20320;-73
2023/10/09 16:15:45;;;;;;;;;;;;;;;5.51;77.39;98794.28;4959869;28;19922;-71
2023/10/09 16:18:11;;;;;;;;;;;;;;;5.51;77.19;98797.72;4962304;28;19929;-70
2023/10/09 16:20:37;;;;;;;;;;;;;;;5.51;77.50;98795.16;5066357;28;19918;-70
2023/10/09 16:23:04;;;;;;;;;;;;;;;5.52;77.37;98803.72;5016266;28;19918;-71